aviador You're here:

HESH Decoded Metar

SHARM EL SHEIKHI in EGYPT
Report Time2018-06-25 11:00:00
UTC Time2018-06-25 12:04:41
Flight Rules vfr VFR
Wind010° at 18 kt
W.Decomp.*RWY 04: 15.1 kt HW 9.8 kt LCW
W.Rank010° ranks 2
Current wind is above 010° avg. (12.3)
Visibility9999 m
Phenomena:N/A
Clouds:N/A
Expected CloudBase > 8,400 ft AGL from Temp-Dew spread
CeilingNone
Temp35°C (ISA +20)
Dew Point14°C (28% RH)
Heat Index34.3°C
AAT29.7°C
QNH1004 hPa
Density Alt2,986 ft
Elevation164 ft
Report Wrong Elevation
Raw Report
HESH 251100Z 01018KT CAVOK 35/14 Q1004 NOSIG=

Extra information for HESH:More info

Metar Taf Metar & Taf Last 4 Metars F.Rules Stats Wind Profile Meteogram Temp Stats Airport Information Weather charts Add Link Nearby VenuesMetar ALERT Operation Metar Decoded Social comments